sensor_id;sensor_type;location;lat;lon;timestamp;temperature;humidity
13561;DHT22;6852;51.686;5.314;2022-07-29T00:01:50;18.20;99.90
13561;DHT22;6852;51.686;5.314;2022-07-29T00:04:19;18.20;99.90
13561;DHT22;6852;51.686;5.314;2022-07-29T00:06:47;18.20;99.90
13561;DHT22;6852;51.686;5.314;2022-07-29T00:09:14;18.20;99.90
13561;DHT22;6852;51.686;5.314;2022-07-29T00:11:41;18.20;99.90
13561;DHT22;6852;51.686;5.314;2022-07-29T00:14:09;18.20;99.90
13561;DHT22;6852;51.686;5.314;2022-07-29T00:16:36;18.20;99.90
13561;DHT22;6852;51.686;5.314;2022-07-29T00:19:04;18.20;99.90
13561;DHT22;6852;51.686;5.314;2022-07-29T00:21:33;18.30;99.90
13561;DHT22;6852;51.686;5.314;2022-07-29T00:24:00;18.20;99.90
13561;DHT22;6852;51.686;5.314;2022-07-29T00:26:27;18.30;99.90
13561;DHT22;6852;51.686;5.314;2022-07-29T00:28:59;18.50;99.90
13561;DHT22;6852;51.686;5.314;2022-07-29T00:31:46;18.40;99.90
13561;DHT22;6852;51.686;5.314;2022-07-29T00:34:13;18.30;99.90
13561;DHT22;6852;51.686;5.314;2022-07-29T00:36:59;18.40;99.90
13561;DHT22;6852;51.686;5.314;2022-07-29T00:39:26;18.30;99.90
13561;DHT22;6852;51.686;5.314;2022-07-29T00:41:54;18.40;99.90
13561;DHT22;6852;51.686;5.314;2022-07-29T00:44:21;18.20;99.90
13561;DHT22;6852;51.686;5.314;2022-07-29T00:46:48;18.20;99.90
13561;DHT22;6852;51.686;5.314;2022-07-29T00:49:15;18.20;99.90
13561;DHT22;6852;51.686;5.314;2022-07-29T00:51:43;18.00;99.90
13561;DHT22;6852;51.686;5.314;2022-07-29T00:54:09;18.00;99.90
13561;DHT22;6852;51.686;5.314;2022-07-29T00:56:37;18.10;99.90
13561;DHT22;6852;51.686;5.314;2022-07-29T00:59:04;17.90;99.90
13561;DHT22;6852;51.686;5.314;2022-07-29T01:01:31;17.90;99.90
13561;DHT22;6852;51.686;5.314;2022-07-29T01:03:58;18.00;99.90
13561;DHT22;6852;51.686;5.314;2022-07-29T01:06:26;18.00;99.90
13561;DHT22;6852;51.686;5.314;2022-07-29T01:08:54;18.20;99.90
13561;DHT22;6852;51.686;5.314;2022-07-29T01:11:23;18.40;99.90
13561;DHT22;6852;51.686;5.314;2022-07-29T01:13:51;18.40;99.90
13561;DHT22;6852;51.686;5.314;2022-07-29T01:16:32;18.40;99.90
13561;DHT22;6852;51.686;5.314;2022-07-29T01:19:11;18.50;99.90
13561;DHT22;6852;51.686;5.314;2022-07-29T01:27:45;18.30;99.90
13561;DHT22;6852;51.686;5.314;2022-07-29T01:30:14;18.00;99.90
13561;DHT22;6852;51.686;5.314;2022-07-29T01:32:43;18.20;99.90
13561;DHT22;6852;51.686;5.314;2022-07-29T01:35:23;18.10;99.90
13561;DHT22;6852;51.686;5.314;2022-07-29T01:38:04;18.00;99.90
13561;DHT22;6852;51.686;5.314;2022-07-29T01:40:43;18.10;99.90
13561;DHT22;6852;51.686;5.314;2022-07-29T01:43:14;18.20;99.90
13561;DHT22;6852;51.686;5.314;2022-07-29T01:46:13;18.20;99.90
13561;DHT22;6852;51.686;5.314;2022-07-29T01:48:43;18.20;99.90
13561;DHT22;6852;51.686;5.314;2022-07-29T01:51:20;18.00;99.90
13561;DHT22;6852;51.686;5.314;2022-07-29T01:53:53;18.10;99.90
13561;DHT22;6852;51.686;5.314;2022-07-29T01:56:23;18.00;99.90
13561;DHT22;6852;51.686;5.314;2022-07-29T01:58:52;17.90;99.90
13561;DHT22;6852;51.686;5.314;2022-07-29T02:01:21;18.00;99.90
13561;DHT22;6852;51.686;5.314;2022-07-29T02:03:53;17.90;99.90
13561;DHT22;6852;51.686;5.314;2022-07-29T02:06:22;17.80;99.90
13561;DHT22;6852;51.686;5.314;2022-07-29T02:08:52;17.80;99.90
13561;DHT22;6852;51.686;5.314;2022-07-29T02:11:19;17.90;99.90
13561;DHT22;6852;51.686;5.314;2022-07-29T02:13:47;17.90;99.90
13561;DHT22;6852;51.686;5.314;2022-07-29T02:16:16;17.90;99.90
13561;DHT22;6852;51.686;5.314;2022-07-29T02:18:46;17.90;99.90
13561;DHT22;6852;51.686;5.314;2022-07-29T02:21:19;17.70;99.90
13561;DHT22;6852;51.686;5.314;2022-07-29T02:23:48;17.70;99.90
13561;DHT22;6852;51.686;5.314;2022-07-29T02:26:18;17.80;99.90
13561;DHT22;6852;51.686;5.314;2022-07-29T02:28:47;17.80;99.90
13561;DHT22;6852;51.686;5.314;2022-07-29T02:31:16;17.70;99.90
13561;DHT22;6852;51.686;5.314;2022-07-29T02:33:46;17.70;99.90
13561;DHT22;6852;51.686;5.314;2022-07-29T02:36:14;17.60;99.90
13561;DHT22;6852;51.686;5.314;2022-07-29T02:38:44;17.70;99.90
13561;DHT22;6852;51.686;5.314;2022-07-29T02:41:46;17.60;99.90
13561;DHT22;6852;51.686;5.314;2022-07-29T02:44:19;17.50;99.90
13561;DHT22;6852;51.686;5.314;2022-07-29T02:46:50;17.40;99.90
13561;DHT22;6852;51.686;5.314;2022-07-29T02:52:48;17.30;99.90
13561;DHT22;6852;51.686;5.314;2022-07-29T02:55:19;17.20;99.90
13561;DHT22;6852;51.686;5.314;2022-07-29T02:58:17;17.20;99.90
13561;DHT22;6852;51.686;5.314;2022-07-29T03:00:47;17.10;99.90
13561;DHT22;6852;51.686;5.314;2022-07-29T03:03:17;17.00;99.90
13561;DHT22;6852;51.686;5.314;2022-07-29T03:05:48;17.00;99.90
13561;DHT22;6852;51.686;5.314;2022-07-29T03:08:15;17.10;99.90
13561;DHT22;6852;51.686;5.314;2022-07-29T03:10:44;17.10;99.90
13561;DHT22;6852;51.686;5.314;2022-07-29T03:13:12;17.10;99.90
13561;DHT22;6852;51.686;5.314;2022-07-29T03:15:42;17.20;99.90
13561;DHT22;6852;51.686;5.314;2022-07-29T03:18:11;17.30;99.90
13561;DHT22;6852;51.686;5.314;2022-07-29T03:20:39;17.40;99.90
13561;DHT22;6852;51.686;5.314;2022-07-29T03:23:07;17.30;99.90
13561;DHT22;6852;51.686;5.314;2022-07-29T03:25:34;17.20;99.90
13561;DHT22;6852;51.686;5.314;2022-07-29T03:28:01;17.10;99.90
13561;DHT22;6852;51.686;5.314;2022-07-29T03:30:28;16.90;99.90
13561;DHT22;6852;51.686;5.314;2022-07-29T03:32:57;16.80;99.90
13561;DHT22;6852;51.686;5.314;2022-07-29T03:35:28;16.80;99.90
13561;DHT22;6852;51.686;5.314;2022-07-29T03:37:56;16.80;99.90
13561;DHT22;6852;51.686;5.314;2022-07-29T03:40:30;16.70;99.90
13561;DHT22;6852;51.686;5.314;2022-07-29T03:42:59;16.70;99.90
13561;DHT22;6852;51.686;5.314;2022-07-29T03:45:29;16.80;99.90
13561;DHT22;6852;51.686;5.314;2022-07-29T03:48:01;16.80;99.90
13561;DHT22;6852;51.686;5.314;2022-07-29T03:50:30;16.80;99.90
13561;DHT22;6852;51.686;5.314;2022-07-29T03:53:00;16.80;99.90
13561;DHT22;6852;51.686;5.314;2022-07-29T03:55:29;16.70;99.90
13561;DHT22;6852;51.686;5.314;2022-07-29T03:58:00;16.70;99.90
13561;DHT22;6852;51.686;5.314;2022-07-29T04:00:29;16.70;99.90
13561;DHT22;6852;51.686;5.314;2022-07-29T04:02:57;16.60;99.90
13561;DHT22;6852;51.686;5.314;2022-07-29T04:05:24;16.80;99.90
13561;DHT22;6852;51.686;5.314;2022-07-29T04:07:51;16.60;99.90
13561;DHT22;6852;51.686;5.314;2022-07-29T04:10:18;16.70;99.90
13561;DHT22;6852;51.686;5.314;2022-07-29T04:12:57;16.60;99.90
13561;DHT22;6852;51.686;5.314;2022-07-29T04:15:25;16.60;99.90
13561;DHT22;6852;51.686;5.314;2022-07-29T04:17:56;16.70;99.90
13561;DHT22;6852;51.686;5.314;2022-07-29T04:20:23;16.60;99.90
13561;DHT22;6852;51.686;5.314;2022-07-29T04:22:50;16.70;99.90
13561;DHT22;6852;51.686;5.314;2022-07-29T04:25:17;16.80;99.90
13561;DHT22;6852;51.686;5.314;2022-07-29T04:27:44;16.90;99.90
13561;DHT22;6852;51.686;5.314;2022-07-29T04:30:27;16.90;99.90
13561;DHT22;6852;51.686;5.314;2022-07-29T04:32:54;16.70;99.90
13561;DHT22;6852;51.686;5.314;2022-07-29T04:35:21;16.80;99.90
13561;DHT22;6852;51.686;5.314;2022-07-29T04:37:49;16.50;99.90
13561;DHT22;6852;51.686;5.314;2022-07-29T04:40:16;16.30;99.90
13561;DHT22;6852;51.686;5.314;2022-07-29T04:42:43;16.30;99.90
13561;DHT22;6852;51.686;5.314;2022-07-29T04:45:12;16.10;99.90
13561;DHT22;6852;51.686;5.314;2022-07-29T04:47:40;16.30;99.90
13561;DHT22;6852;51.686;5.314;2022-07-29T04:50:09;16.30;99.90
13561;DHT22;6852;51.686;5.314;2022-07-29T04:52:38;16.20;99.90
13561;DHT22;6852;51.686;5.314;2022-07-29T04:55:06;16.30;99.90
13561;DHT22;6852;51.686;5.314;2022-07-29T04:57:33;16.40;99.90
13561;DHT22;6852;51.686;5.314;2022-07-29T05:00:00;16.30;99.90
13561;DHT22;6852;51.686;5.314;2022-07-29T05:02:27;16.20;99.90
13561;DHT22;6852;51.686;5.314;2022-07-29T05:04:54;16.30;99.90
13561;DHT22;6852;51.686;5.314;2022-07-29T05:07:21;16.40;99.90
13561;DHT22;6852;51.686;5.314;2022-07-29T05:09:49;16.70;99.90
13561;DHT22;6852;51.686;5.314;2022-07-29T05:12:16;16.60;99.90
13561;DHT22;6852;51.686;5.314;2022-07-29T05:14:43;16.70;99.90
13561;DHT22;6852;51.686;5.314;2022-07-29T05:17:10;16.80;99.90
13561;DHT22;6852;51.686;5.314;2022-07-29T05:19:37;16.50;99.90
13561;DHT22;6852;51.686;5.314;2022-07-29T05:22:05;16.70;99.90
13561;DHT22;6852;51.686;5.314;2022-07-29T05:24:32;16.60;99.90
13561;DHT22;6852;51.686;5.314;2022-07-29T05:26:59;16.50;99.90
13561;DHT22;6852;51.686;5.314;2022-07-29T05:29:26;16.40;99.90
13561;DHT22;6852;51.686;5.314;2022-07-29T05:32:16;16.40;99.90
13561;DHT22;6852;51.686;5.314;2022-07-29T05:34:43;16.40;99.90
13561;DHT22;6852;51.686;5.314;2022-07-29T05:37:20;16.40;99.90
13561;DHT22;6852;51.686;5.314;2022-07-29T05:39:47;16.40;99.90
13561;DHT22;6852;51.686;5.314;2022-07-29T05:42:22;16.40;99.90
13561;DHT22;6852;51.686;5.314;2022-07-29T05:44:50;16.60;99.90
13561;DHT22;6852;51.686;5.314;2022-07-29T05:47:17;16.70;99.90
13561;DHT22;6852;51.686;5.314;2022-07-29T05:49:47;16.80;99.90
13561;DHT22;6852;51.686;5.314;2022-07-29T05:52:15;16.60;99.90
13561;DHT22;6852;51.686;5.314;2022-07-29T05:54:43;16.70;99.90
13561;DHT22;6852;51.686;5.314;2022-07-29T05:57:17;16.60;99.90
13561;DHT22;6852;51.686;5.314;2022-07-29T05:59:45;16.70;99.90
13561;DHT22;6852;51.686;5.314;2022-07-29T06:02:12;16.80;99.90
13561;DHT22;6852;51.686;5.314;2022-07-29T06:04:39;16.90;99.90
13561;DHT22;6852;51.686;5.314;2022-07-29T06:07:06;16.90;99.90
13561;DHT22;6852;51.686;5.314;2022-07-29T06:09:34;16.80;99.90
13561;DHT22;6852;51.686;5.314;2022-07-29T06:12:02;16.70;99.90
13561;DHT22;6852;51.686;5.314;2022-07-29T06:14:32;16.90;99.90
13561;DHT22;6852;51.686;5.314;2022-07-29T06:16:59;16.90;99.90
13561;DHT22;6852;51.686;5.314;2022-07-29T06:19:26;16.80;99.90
13561;DHT22;6852;51.686;5.314;2022-07-29T06:21:53;16.80;99.90
13561;DHT22;6852;51.686;5.314;2022-07-29T06:24:20;17.00;99.90
13561;DHT22;6852;51.686;5.314;2022-07-29T06:26:47;17.20;99.90
13561;DHT22;6852;51.686;5.314;2022-07-29T06:29:14;17.10;99.90
13561;DHT22;6852;51.686;5.314;2022-07-29T06:31:41;17.20;99.90
13561;DHT22;6852;51.686;5.314;2022-07-29T06:34:08;17.20;99.90
13561;DHT22;6852;51.686;5.314;2022-07-29T06:36:37;16.90;99.90
13561;DHT22;6852;51.686;5.314;2022-07-29T06:39:07;17.00;99.90
13561;DHT22;6852;51.686;5.314;2022-07-29T06:41:34;17.20;99.90
13561;DHT22;6852;51.686;5.314;2022-07-29T06:44:02;17.20;99.90
13561;DHT22;6852;51.686;5.314;2022-07-29T06:46:31;16.90;99.90
13561;DHT22;6852;51.686;5.314;2022-07-29T06:48:59;17.10;99.90
13561;DHT22;6852;51.686;5.314;2022-07-29T06:51:29;17.10;99.90
13561;DHT22;6852;51.686;5.314;2022-07-29T06:53:59;17.10;99.90
13561;DHT22;6852;51.686;5.314;2022-07-29T06:56:33;17.20;99.90
13561;DHT22;6852;51.686;5.314;2022-07-29T06:59:07;17.30;99.90
13561;DHT22;6852;51.686;5.314;2022-07-29T07:01:36;17.50;99.90
13561;DHT22;6852;51.686;5.314;2022-07-29T07:04:03;17.40;99.90
13561;DHT22;6852;51.686;5.314;2022-07-29T07:06:31;17.50;99.90
13561;DHT22;6852;51.686;5.314;2022-07-29T07:08:58;17.30;99.90
13561;DHT22;6852;51.686;5.314;2022-07-29T07:11:25;17.50;99.90
13561;DHT22;6852;51.686;5.314;2022-07-29T07:13:52;17.50;99.90
13561;DHT22;6852;51.686;5.314;2022-07-29T07:16:19;17.40;99.90
13561;DHT22;6852;51.686;5.314;2022-07-29T07:18:46;17.50;99.90
13561;DHT22;6852;51.686;5.314;2022-07-29T07:21:13;17.70;99.90
13561;DHT22;6852;51.686;5.314;2022-07-29T07:23:45;17.70;99.90
13561;DHT22;6852;51.686;5.314;2022-07-29T07:26:12;17.50;99.90
13561;DHT22;6852;51.686;5.314;2022-07-29T07:28:39;17.50;99.90
13561;DHT22;6852;51.686;5.314;2022-07-29T07:31:06;17.70;99.90
13561;DHT22;6852;51.686;5.314;2022-07-29T07:33:33;17.70;99.90
13561;DHT22;6852;51.686;5.314;2022-07-29T07:36:00;17.80;99.90
13561;DHT22;6852;51.686;5.314;2022-07-29T07:38:27;18.20;99.90
13561;DHT22;6852;51.686;5.314;2022-07-29T07:40:54;18.50;99.90
13561;DHT22;6852;51.686;5.314;2022-07-29T07:43:21;19.00;99.90
13561;DHT22;6852;51.686;5.314;2022-07-29T07:45:49;19.00;99.90
13561;DHT22;6852;51.686;5.314;2022-07-29T07:48:16;19.30;99.90
13561;DHT22;6852;51.686;5.314;2022-07-29T07:50:43;19.50;99.90
13561;DHT22;6852;51.686;5.314;2022-07-29T07:53:10;19.80;99.90
13561;DHT22;6852;51.686;5.314;2022-07-29T07:55:42;19.50;99.90
13561;DHT22;6852;51.686;5.314;2022-07-29T07:58:29;19.50;99.90
13561;DHT22;6852;51.686;5.314;2022-07-29T08:00:56;19.70;99.90
13561;DHT22;6852;51.686;5.314;2022-07-29T08:03:23;19.70;99.90
13561;DHT22;6852;51.686;5.314;2022-07-29T08:05:50;19.90;99.90
13561;DHT22;6852;51.686;5.314;2022-07-29T08:08:18;20.00;99.90
13561;DHT22;6852;51.686;5.314;2022-07-29T08:10:46;20.10;99.90
13561;DHT22;6852;51.686;5.314;2022-07-29T08:13:20;20.30;99.90
13561;DHT22;6852;51.686;5.314;2022-07-29T08:15:48;21.00;99.90
13561;DHT22;6852;51.686;5.314;2022-07-29T08:18:28;21.40;99.90
13561;DHT22;6852;51.686;5.314;2022-07-29T08:20:56;21.50;99.90
13561;DHT22;6852;51.686;5.314;2022-07-29T08:23:23;21.00;99.90
13561;DHT22;6852;51.686;5.314;2022-07-29T08:26:13;21.30;99.90
13561;DHT22;6852;51.686;5.314;2022-07-29T08:28:42;21.80;99.90
13561;DHT22;6852;51.686;5.314;2022-07-29T08:31:13;21.90;99.90
13561;DHT22;6852;51.686;5.314;2022-07-29T08:33:41;22.20;99.90
13561;DHT22;6852;51.686;5.314;2022-07-29T08:36:08;22.20;99.90
13561;DHT22;6852;51.686;5.314;2022-07-29T08:38:35;21.70;99.90
13561;DHT22;6852;51.686;5.314;2022-07-29T08:41:02;22.90;99.90
13561;DHT22;6852;51.686;5.314;2022-07-29T08:43:29;23.10;99.90
13561;DHT22;6852;51.686;5.314;2022-07-29T08:45:57;23.30;99.90
13561;DHT22;6852;51.686;5.314;2022-07-29T08:48:24;23.20;99.90
13561;DHT22;6852;51.686;5.314;2022-07-29T08:50:58;23.20;99.90
13561;DHT22;6852;51.686;5.314;2022-07-29T08:53:27;23.50;99.90
13561;DHT22;6852;51.686;5.314;2022-07-29T08:55:55;23.20;99.90
13561;DHT22;6852;51.686;5.314;2022-07-29T08:58:26;23.30;99.90
13561;DHT22;6852;51.686;5.314;2022-07-29T09:00:55;23.10;99.90
13561;DHT22;6852;51.686;5.314;2022-07-29T09:03:26;23.40;99.90
13561;DHT22;6852;51.686;5.314;2022-07-29T09:05:54;23.30;99.90
13561;DHT22;6852;51.686;5.314;2022-07-29T09:08:21;23.60;99.90
13561;DHT22;6852;51.686;5.314;2022-07-29T09:10:49;23.60;99.90
13561;DHT22;6852;51.686;5.314;2022-07-29T09:13:18;24.20;99.90
13561;DHT22;6852;51.686;5.314;2022-07-29T09:15:49;23.60;99.90
13561;DHT22;6852;51.686;5.314;2022-07-29T09:18:42;24.10;99.90
13561;DHT22;6852;51.686;5.314;2022-07-29T09:21:12;24.10;99.90
13561;DHT22;6852;51.686;5.314;2022-07-29T09:24:10;24.20;99.90
13561;DHT22;6852;51.686;5.314;2022-07-29T09:26:45;24.20;99.90
13561;DHT22;6852;51.686;5.314;2022-07-29T09:29:16;24.40;99.90
13561;DHT22;6852;51.686;5.314;2022-07-29T09:31:45;24.40;99.90
13561;DHT22;6852;51.686;5.314;2022-07-29T09:34:21;24.60;99.90
13561;DHT22;6852;51.686;5.314;2022-07-29T09:36:50;24.50;99.90
13561;DHT22;6852;51.686;5.314;2022-07-29T09:39:37;24.40;99.90
13561;DHT22;6852;51.686;5.314;2022-07-29T09:42:12;24.00;99.90
13561;DHT22;6852;51.686;5.314;2022-07-29T09:44:47;24.20;99.90
13561;DHT22;6852;51.686;5.314;2022-07-29T09:47:17;24.40;99.90
13561;DHT22;6852;51.686;5.314;2022-07-29T09:49:58;24.60;99.90
13561;DHT22;6852;51.686;5.314;2022-07-29T09:52:29;24.90;99.90
13561;DHT22;6852;51.686;5.314;2022-07-29T09:55:08;24.80;99.90
13561;DHT22;6852;51.686;5.314;2022-07-29T09:57:39;24.90;99.90
13561;DHT22;6852;51.686;5.314;2022-07-29T10:00:10;24.60;99.90
13561;DHT22;6852;51.686;5.314;2022-07-29T10:02:41;24.40;99.90
13561;DHT22;6852;51.686;5.314;2022-07-29T10:05:25;24.40;99.90
13561;DHT22;6852;51.686;5.314;2022-07-29T10:08:02;24.80;99.90
13561;DHT22;6852;51.686;5.314;2022-07-29T10:10:32;24.70;99.90
13561;DHT22;6852;51.686;5.314;2022-07-29T10:13:02;24.80;99.90
13561;DHT22;6852;51.686;5.314;2022-07-29T10:15:39;24.80;99.90
13561;DHT22;6852;51.686;5.314;2022-07-29T10:18:08;24.30;99.90
13561;DHT22;6852;51.686;5.314;2022-07-29T10:20:35;24.60;99.90
13561;DHT22;6852;51.686;5.314;2022-07-29T10:23:04;24.00;99.90
13561;DHT22;6852;51.686;5.314;2022-07-29T10:25:31;24.00;99.90
13561;DHT22;6852;51.686;5.314;2022-07-29T10:27:58;24.10;99.90
13561;DHT22;6852;51.686;5.314;2022-07-29T10:30:26;24.40;99.90
13561;DHT22;6852;51.686;5.314;2022-07-29T10:33:18;24.50;99.90
13561;DHT22;6852;51.686;5.314;2022-07-29T10:36:13;24.10;99.90
13561;DHT22;6852;51.686;5.314;2022-07-29T10:39:05;24.20;99.90
13561;DHT22;6852;51.686;5.314;2022-07-29T10:41:56;24.40;99.90
13561;DHT22;6852;51.686;5.314;2022-07-29T10:44:26;24.30;99.90
13561;DHT22;6852;51.686;5.314;2022-07-29T10:46:54;24.40;99.90
13561;DHT22;6852;51.686;5.314;2022-07-29T10:49:25;24.80;99.90
13561;DHT22;6852;51.686;5.314;2022-07-29T10:52:07;24.90;99.90
13561;DHT22;6852;51.686;5.314;2022-07-29T10:57:14;24.80;99.90
13561;DHT22;6852;51.686;5.314;2022-07-29T10:59:46;24.40;99.90
13561;DHT22;6852;51.686;5.314;2022-07-29T11:05:15;24.70;99.90
13561;DHT22;6852;51.686;5.314;2022-07-29T11:10:50;24.90;99.90
13561;DHT22;6852;51.686;5.314;2022-07-29T11:16:09;25.70;99.90
13561;DHT22;6852;51.686;5.314;2022-07-29T11:21:41;25.40;99.90
13561;DHT22;6852;51.686;5.314;2022-07-29T11:24:26;25.30;99.90
13561;DHT22;6852;51.686;5.314;2022-07-29T11:27:12;25.40;99.90
13561;DHT22;6852;51.686;5.314;2022-07-29T11:29:55;26.20;99.90
13561;DHT22;6852;51.686;5.314;2022-07-29T11:32:25;25.40;99.90
13561;DHT22;6852;51.686;5.314;2022-07-29T11:35:20;26.20;99.90
13561;DHT22;6852;51.686;5.314;2022-07-29T11:38:23;25.80;99.90
13561;DHT22;6852;51.686;5.314;2022-07-29T11:41:22;26.80;99.90
13561;DHT22;6852;51.686;5.314;2022-07-29T11:43:58;27.10;99.90
13561;DHT22;6852;51.686;5.314;2022-07-29T11:46:48;27.00;99.90
13561;DHT22;6852;51.686;5.314;2022-07-29T11:49:23;27.10;99.90
13561;DHT22;6852;51.686;5.314;2022-07-29T11:51:59;27.30;99.90
13561;DHT22;6852;51.686;5.314;2022-07-29T11:54:33;26.60;99.90
13561;DHT22;6852;51.686;5.314;2022-07-29T11:57:21;26.90;99.90
13561;DHT22;6852;51.686;5.314;2022-07-29T12:00:05;27.40;99.90
13561;DHT22;6852;51.686;5.314;2022-07-29T12:02:42;27.00;99.90
13561;DHT22;6852;51.686;5.314;2022-07-29T12:05:14;27.30;99.90
13561;DHT22;6852;51.686;5.314;2022-07-29T12:08:21;26.90;99.90
13561;DHT22;6852;51.686;5.314;2022-07-29T12:10:50;27.60;99.90
13561;DHT22;6852;51.686;5.314;2022-07-29T12:13:21;27.90;99.90
13561;DHT22;6852;51.686;5.314;2022-07-29T12:16:04;27.80;99.90
13561;DHT22;6852;51.686;5.314;2022-07-29T12:18:31;27.90;99.90
13561;DHT22;6852;51.686;5.314;2022-07-29T12:21:00;27.70;99.90
13561;DHT22;6852;51.686;5.314;2022-07-29T12:23:33;28.10;99.90
13561;DHT22;6852;51.686;5.314;2022-07-29T12:26:05;28.30;99.90
13561;DHT22;6852;51.686;5.314;2022-07-29T12:28:39;28.10;99.90
13561;DHT22;6852;51.686;5.314;2022-07-29T12:31:13;28.50;99.90
13561;DHT22;6852;51.686;5.314;2022-07-29T12:34:00;28.10;99.90
13561;DHT22;6852;51.686;5.314;2022-07-29T12:36:28;27.80;99.90
13561;DHT22;6852;51.686;5.314;2022-07-29T12:38:55;28.20;99.90
13561;DHT22;6852;51.686;5.314;2022-07-29T12:41:21;28.60;99.90
13561;DHT22;6852;51.686;5.314;2022-07-29T12:43:53;28.90;99.90
13561;DHT22;6852;51.686;5.314;2022-07-29T12:46:21;28.70;99.90
13561;DHT22;6852;51.686;5.314;2022-07-29T12:48:51;28.20;99.90
13561;DHT22;6852;51.686;5.314;2022-07-29T12:51:29;28.20;99.90
13561;DHT22;6852;51.686;5.314;2022-07-29T12:54:09;28.30;99.90
13561;DHT22;6852;51.686;5.314;2022-07-29T12:56:38;28.70;99.90
13561;DHT22;6852;51.686;5.314;2022-07-29T12:59:17;28.60;99.90
13561;DHT22;6852;51.686;5.314;2022-07-29T13:01:46;28.50;99.90
13561;DHT22;6852;51.686;5.314;2022-07-29T13:04:32;27.70;99.90
13561;DHT22;6852;51.686;5.314;2022-07-29T13:07:00;26.30;99.90
13561;DHT22;6852;51.686;5.314;2022-07-29T13:09:44;26.10;99.90
13561;DHT22;6852;51.686;5.314;2022-07-29T13:12:13;27.30;99.90
13561;DHT22;6852;51.686;5.314;2022-07-29T13:14:42;27.40;99.90
13561;DHT22;6852;51.686;5.314;2022-07-29T13:17:18;27.70;99.90
13561;DHT22;6852;51.686;5.314;2022-07-29T13:19:49;27.90;99.90
13561;DHT22;6852;51.686;5.314;2022-07-29T13:22:22;28.10;99.90
13561;DHT22;6852;51.686;5.314;2022-07-29T13:24:53;28.10;99.90
13561;DHT22;6852;51.686;5.314;2022-07-29T13:27:22;27.80;99.90
13561;DHT22;6852;51.686;5.314;2022-07-29T13:29:49;28.10;99.90
13561;DHT22;6852;51.686;5.314;2022-07-29T13:32:20;28.60;99.90
13561;DHT22;6852;51.686;5.314;2022-07-29T13:34:55;28.90;99.90
13561;DHT22;6852;51.686;5.314;2022-07-29T13:37:22;28.40;99.90
13561;DHT22;6852;51.686;5.314;2022-07-29T13:39:49;28.40;99.90
13561;DHT22;6852;51.686;5.314;2022-07-29T13:42:19;28.50;99.90
13561;DHT22;6852;51.686;5.314;2022-07-29T13:44:46;28.40;99.90
13561;DHT22;6852;51.686;5.314;2022-07-29T13:47:15;28.30;99.90
13561;DHT22;6852;51.686;5.314;2022-07-29T13:49:42;28.70;99.90
13561;DHT22;6852;51.686;5.314;2022-07-29T13:52:09;28.50;99.90
13561;DHT22;6852;51.686;5.314;2022-07-29T13:54:37;27.80;99.90
13561;DHT22;6852;51.686;5.314;2022-07-29T13:57:09;27.60;99.90
13561;DHT22;6852;51.686;5.314;2022-07-29T13:59:40;27.40;99.90
13561;DHT22;6852;51.686;5.314;2022-07-29T14:02:09;27.10;99.90
13561;DHT22;6852;51.686;5.314;2022-07-29T14:04:36;27.50;99.90
13561;DHT22;6852;51.686;5.314;2022-07-29T14:07:05;27.50;99.90
13561;DHT22;6852;51.686;5.314;2022-07-29T14:09:32;27.20;99.90
13561;DHT22;6852;51.686;5.314;2022-07-29T14:12:07;27.20;99.90
13561;DHT22;6852;51.686;5.314;2022-07-29T14:14:34;26.60;99.90
13561;DHT22;6852;51.686;5.314;2022-07-29T14:17:04;26.90;99.90
13561;DHT22;6852;51.686;5.314;2022-07-29T14:19:34;27.00;99.90
13561;DHT22;6852;51.686;5.314;2022-07-29T14:22:06;26.70;99.90
13561;DHT22;6852;51.686;5.314;2022-07-29T14:24:35;26.40;99.90
13561;DHT22;6852;51.686;5.314;2022-07-29T14:27:04;26.40;99.90
13561;DHT22;6852;51.686;5.314;2022-07-29T14:29:32;26.50;99.90
13561;DHT22;6852;51.686;5.314;2022-07-29T14:32:08;26.90;99.90
13561;DHT22;6852;51.686;5.314;2022-07-29T14:34:38;27.20;99.90
13561;DHT22;6852;51.686;5.314;2022-07-29T14:37:06;27.00;99.90
13561;DHT22;6852;51.686;5.314;2022-07-29T14:39:34;26.90;99.90
13561;DHT22;6852;51.686;5.314;2022-07-29T14:42:08;26.80;99.90
13561;DHT22;6852;51.686;5.314;2022-07-29T14:44:37;26.60;99.90
13561;DHT22;6852;51.686;5.314;2022-07-29T14:47:04;26.60;99.90
13561;DHT22;6852;51.686;5.314;2022-07-29T14:49:34;26.60;99.90
13561;DHT22;6852;51.686;5.314;2022-07-29T14:52:00;26.70;99.90
13561;DHT22;6852;51.686;5.314;2022-07-29T14:54:27;26.90;99.90
13561;DHT22;6852;51.686;5.314;2022-07-29T14:56:54;26.80;99.90
13561;DHT22;6852;51.686;5.314;2022-07-29T14:59:24;26.80;99.90
13561;DHT22;6852;51.686;5.314;2022-07-29T15:01:52;26.80;99.90
13561;DHT22;6852;51.686;5.314;2022-07-29T15:04:19;26.50;99.90
13561;DHT22;6852;51.686;5.314;2022-07-29T15:06:46;26.40;99.90
13561;DHT22;6852;51.686;5.314;2022-07-29T15:09:13;26.20;99.90
13561;DHT22;6852;51.686;5.314;2022-07-29T15:11:40;25.90;99.90
13561;DHT22;6852;51.686;5.314;2022-07-29T15:14:07;26.30;99.90
13561;DHT22;6852;51.686;5.314;2022-07-29T15:16:38;26.40;99.90
13561;DHT22;6852;51.686;5.314;2022-07-29T15:19:09;26.50;99.90
13561;DHT22;6852;51.686;5.314;2022-07-29T15:21:36;26.50;99.90
13561;DHT22;6852;51.686;5.314;2022-07-29T15:24:13;26.40;99.90
13561;DHT22;6852;51.686;5.314;2022-07-29T15:26:40;26.30;99.90
13561;DHT22;6852;51.686;5.314;2022-07-29T15:29:09;26.40;99.90
13561;DHT22;6852;51.686;5.314;2022-07-29T15:31:36;26.30;99.90
13561;DHT22;6852;51.686;5.314;2022-07-29T15:34:03;26.10;99.90
13561;DHT22;6852;51.686;5.314;2022-07-29T15:36:32;25.90;99.90
13561;DHT22;6852;51.686;5.314;2022-07-29T15:39:18;25.70;99.90
13561;DHT22;6852;51.686;5.314;2022-07-29T15:41:45;25.70;99.90
13561;DHT22;6852;51.686;5.314;2022-07-29T15:44:12;26.10;99.90
13561;DHT22;6852;51.686;5.314;2022-07-29T15:46:40;26.20;99.90
13561;DHT22;6852;51.686;5.314;2022-07-29T15:49:26;26.00;99.90
13561;DHT22;6852;51.686;5.314;2022-07-29T15:52:17;25.90;99.90
13561;DHT22;6852;51.686;5.314;2022-07-29T15:54:55;25.90;99.90
13561;DHT22;6852;51.686;5.314;2022-07-29T15:57:23;25.90;99.90
13561;DHT22;6852;51.686;5.314;2022-07-29T15:59:50;25.80;99.90
13561;DHT22;6852;51.686;5.314;2022-07-29T16:02:17;25.70;99.90
13561;DHT22;6852;51.686;5.314;2022-07-29T16:04:44;25.90;99.90
13561;DHT22;6852;51.686;5.314;2022-07-29T16:07:11;25.90;99.90
13561;DHT22;6852;51.686;5.314;2022-07-29T16:09:40;26.00;99.90
13561;DHT22;6852;51.686;5.314;2022-07-29T16:12:07;25.90;99.90
13561;DHT22;6852;51.686;5.314;2022-07-29T16:14:41;25.90;99.90
13561;DHT22;6852;51.686;5.314;2022-07-29T16:17:08;26.00;99.90
13561;DHT22;6852;51.686;5.314;2022-07-29T16:19:41;26.10;99.90
13561;DHT22;6852;51.686;5.314;2022-07-29T16:22:09;26.20;99.90
13561;DHT22;6852;51.686;5.314;2022-07-29T16:24:36;26.10;99.90
13561;DHT22;6852;51.686;5.314;2022-07-29T16:27:04;26.00;99.90
13561;DHT22;6852;51.686;5.314;2022-07-29T16:29:32;26.10;99.90
13561;DHT22;6852;51.686;5.314;2022-07-29T16:31:59;26.00;99.90
13561;DHT22;6852;51.686;5.314;2022-07-29T16:34:27;25.90;99.90